Weather History for KAQP - February, 2012

Change the Weather History Date:

Sunday, February 19, 2012

  Actual Average Record
Temperature  
Mean Temperature 31 °F -  
Max Temperature 48 °F 26 °F 82 °F (1997)
Min Temperature 14 °F 10 °F -16 °F (2015)
Degree Days  
Heating Degree Days 34    
Moisture  
Dew Point 17 °F    
Average Humidity 61    
Maximum Humidity 93    
Minimum Humidity 27    
Precipitation  
Precipitation 0.00 in - - ()
Sea Level Pressure  
Sea Level Pressure 29.97 in    
Wind  
Wind Speed 11 mph (SSE)    
Max Wind Speed 20 mph    
Max Gust Speed 26 mph    
Visibility 10 miles    
Events      
Averages and records for this station are not official NWS values.
T = Trace of Precipitation, MM = Missing Value Source: NWS Daily Summary

Daily Weather History Graph

Daily Weather History Graph

Search for Another Location

Airport or City:

Trip Planner

Search our weather history database for the weather conditions in past years. The results will help you decide how hot, cold, wet, or windy it might be!

Date:

Astronomy

Feb. 19, 2012 Rise Set
Actual Time 7:19 AM CST 5:56 PM CST
Civil Twilight 6:49 AM CST 6:26 PM CST
Nautical Twilight 6:15 AM CST 7:01 PM CST
Astronomical Twilight 5:41 AM CST 7:35 PM CST
Moon 5:45 AM CST (2/19) 3:55 PM CST (2/19)
Length of Visible Light 11h 37m
Length of Day
10h 36m
Waning Crescent, 5% of the Moon is Illuminated
Feb 19
Waning Crescent
Feb 21
New
Feb 29
First Quarter
Mar 8
Full
Mar 14
Last Quarter

Hourly Weather History & Observations

Time (CST) Temp. Windchill Dew Point Humidity Pressure Visibility Wind Dir Wind Speed Gust Speed Precip Events Conditions
12:15 AM 24.8 °F 14.6 °F 17.6 °F 74% 30.06 in 10.0 mi SSE 10.4 mph - N/A   Clear
12:35 AM 24.8 °F 14.6 °F 17.6 °F 74% 30.06 in 10.0 mi SSE 10.4 mph - N/A   Clear
12:55 AM 24.8 °F 15.3 °F 15.8 °F 69% 30.06 in 10.0 mi SSE 9.2 mph - N/A   Clear
1:15 AM 23.0 °F 13.9 °F 15.8 °F 74% 30.06 in 10.0 mi SSE 8.1 mph - N/A   Clear
1:35 AM 21.2 °F 14.9 °F 15.8 °F 80% 30.06 in 10.0 mi SSE 4.6 mph - N/A   Clear
1:55 AM 21.2 °F 16.4 °F 15.8 °F 80% 30.06 in 10.0 mi SE 3.5 mph - N/A   Clear
2:15 AM 17.6 °F - 12.2 °F 79% 30.06 in 10.0 mi Calm Calm - N/A   Clear
2:35 AM 14.0 °F 8.2 °F 10.4 °F 86% 30.06 in 10.0 mi East 3.5 mph - N/A   Clear
2:55 AM 15.8 °F 5.1 °F 12.2 °F 86% 30.05 in 10.0 mi ESE 8.1 mph - N/A   Clear
3:15 AM 19.4 °F 9.5 °F 15.8 °F 86% 30.04 in 10.0 mi SE 8.1 mph - N/A   Clear
3:35 AM 19.4 °F 10.4 °F 15.8 °F 86% 30.03 in 10.0 mi SE 6.9 mph - N/A   Clear
3:55 AM 17.6 °F 7.3 °F 14.0 °F 86% 30.03 in 10.0 mi SE 8.1 mph - N/A   Clear
4:15 AM 19.4 °F 8.6 °F 15.8 °F 86% 30.03 in 10.0 mi SE 9.2 mph - N/A   Clear
4:35 AM 19.4 °F 9.5 °F 14.0 °F 80% 30.02 in 10.0 mi SE 8.1 mph - N/A   Clear
4:54 AM 17.6 °F 5.7 °F 14.0 °F 86% 30.02 in 10.0 mi SE 10.4 mph - N/A   Clear
5:14 AM 19.4 °F 7.2 °F 15.8 °F 86% 30.02 in 10.0 mi SSE 11.5 mph - N/A   Clear
5:35 AM 17.6 °F 5.7 °F 14.0 °F 86% 30.02 in 10.0 mi SE 10.4 mph - N/A   Clear
5:55 AM 17.6 °F 7.3 °F 15.8 °F 93% 30.01 in 10.0 mi SE 8.1 mph - N/A   Clear
6:15 AM 17.6 °F 6.4 °F 15.8 °F 93% 30.01 in 10.0 mi SE 9.2 mph - N/A   Clear
6:35 AM 19.4 °F 7.9 °F 15.8 °F 86% 30.00 in 10.0 mi SE 10.4 mph - N/A   Clear
6:55 AM 19.4 °F 10.4 °F 15.8 °F 86% 30.00 in 10.0 mi SE 6.9 mph - N/A   Clear
7:15 AM 17.6 °F 6.4 °F 15.8 °F 93% 30.00 in 10.0 mi SE 9.2 mph - N/A   Clear
7:34 AM 17.6 °F 6.4 °F 15.8 °F 93% 30.00 in 10.0 mi SE 9.2 mph - N/A   Clear
7:55 AM 19.4 °F 8.6 °F 15.8 °F 86% 30.00 in 10.0 mi SE 9.2 mph - N/A   Clear
8:15 AM 21.2 °F 10.9 °F 17.6 °F 86% 30.00 in 10.0 mi SE 9.2 mph - N/A   Clear
8:35 AM 21.2 °F 11.7 °F 17.6 °F 86% 30.00 in 10.0 mi SE 8.1 mph - N/A   Clear
9:15 AM 28.4 °F 18.5 °F 19.4 °F 69% 29.99 in 10.0 mi SE 11.5 mph 17.3 mph N/A   Clear
9:34 AM 30.2 °F 21.3 °F 19.4 °F 64% 29.99 in 10.0 mi SSE 10.4 mph - N/A   Clear
9:54 AM 32.0 °F 21.6 °F 19.4 °F 60% 29.99 in 10.0 mi South 15.0 mph 20.7 mph N/A   Clear
10:15 AM 33.8 °F 24.8 °F 19.4 °F 56% 29.98 in 10.0 mi SSE 12.7 mph 18.4 mph N/A   Clear
10:35 AM 35.6 °F 26.2 °F 19.4 °F 52% 29.98 in 10.0 mi South 15.0 mph 20.7 mph N/A   Clear
10:55 AM 37.4 °F 28.5 °F 19.4 °F 48% 29.98 in 10.0 mi South 15.0 mph 21.9 mph N/A   Clear
11:14 AM 37.4 °F 27.8 °F 21.2 °F 52% 29.97 in 10.0 mi SSE 17.3 mph 23.0 mph N/A   Clear
11:34 AM 41.0 °F 33.1 °F 21.2 °F 45% 29.97 in 10.0 mi SSE 15.0 mph 21.9 mph N/A   Clear
11:55 AM 44.6 °F 37.8 °F 19.4 °F 37% 29.96 in 10.0 mi South 15.0 mph 23.0 mph N/A   Clear
12:15 PM 44.6 °F 36.9 °F 17.6 °F 34% 29.95 in 10.0 mi South 18.4 mph 25.3 mph N/A   Clear
12:35 PM 44.6 °F 37.4 °F 17.6 °F 34% 29.94 in 10.0 mi SSE 16.1 mph 26.5 mph N/A   Clear
12:55 PM 46.4 °F 40.1 °F 17.6 °F 32% 29.93 in 10.0 mi SSE 15.0 mph 24.2 mph N/A   Clear
1:15 PM 46.4 °F 39.8 °F 17.6 °F 32% 29.92 in 10.0 mi SSE 16.1 mph 24.2 mph N/A   Clear
1:35 PM 48.2 °F - 15.8 °F 27% 29.91 in 10.0 mi SSE 17.3 mph 26.5 mph N/A   Clear
1:55 PM 48.2 °F - 15.8 °F 27% 29.90 in 7.0 mi South 19.6 mph 26.5 mph N/A   Clear
2:35 PM 48.2 °F - 15.8 °F 27% 29.89 in 10.0 mi South 18.4 mph 26.5 mph N/A   Clear
2:55 PM 48.2 °F - 17.6 °F 30% 29.89 in 10.0 mi South 18.4 mph 25.3 mph N/A   Clear
3:15 PM 48.2 °F - 17.6 °F 30% 29.89 in 10.0 mi SSE 17.3 mph 24.2 mph N/A   Clear
3:55 PM 46.4 °F 39.5 °F 17.6 °F 32% 29.89 in 10.0 mi SSE 17.3 mph 25.3 mph N/A   Clear
4:15 PM 46.4 °F 39.5 °F 17.6 °F 32% 29.89 in 10.0 mi SSE 17.3 mph 23.0 mph N/A   Clear
4:35 PM 46.4 °F 40.7 °F 17.6 °F 32% 29.89 in 10.0 mi SSE 12.7 mph 18.4 mph N/A   Clear
4:55 PM 44.6 °F 37.4 °F 15.8 °F 31% 29.90 in 10.0 mi SSE 16.1 mph 25.3 mph N/A   Clear
5:15 PM 44.6 °F 37.4 °F 17.6 °F 34% 29.90 in 10.0 mi SSE 16.1 mph 23.0 mph N/A   Clear
5:35 PM 42.8 °F 35.1 °F 17.6 °F 36% 29.90 in 10.0 mi SSE 16.1 mph 21.9 mph N/A   Clear
5:55 PM 41.0 °F 33.9 °F 17.6 °F 39% 29.91 in 10.0 mi SSE 12.7 mph 20.7 mph N/A   Clear
6:15 PM 39.2 °F 30.8 °F 17.6 °F 42% 29.90 in 10.0 mi SSE 15.0 mph 18.4 mph N/A   Clear
6:35 PM 39.2 °F 30.8 °F 19.4 °F 45% 29.91 in 10.0 mi SSE 15.0 mph 21.9 mph N/A   Clear
6:55 PM 37.4 °F 29.3 °F 21.2 °F 52% 29.91 in 10.0 mi SSE 12.7 mph 19.6 mph N/A   Clear
7:15 PM 37.4 °F 29.3 °F 21.2 °F 52% 29.92 in 10.0 mi SSE 12.7 mph 17.3 mph N/A   Clear
7:35 PM 37.4 °F 30.3 °F 23.0 °F 56% 29.92 in 10.0 mi SSE 10.4 mph - N/A   Clear
7:55 PM 37.4 °F 28.2 °F 24.8 °F 60% 29.92 in 10.0 mi SSE 16.1 mph 23.0 mph N/A   Clear
8:15 PM 35.6 °F 27.1 °F 24.8 °F 65% 29.92 in 10.0 mi SSE 12.7 mph 24.2 mph N/A   Clear
8:35 PM 35.6 °F 27.1 °F 24.8 °F 65% 29.92 in 10.0 mi SSE 12.7 mph 18.4 mph N/A   Clear
8:55 PM 35.6 °F 27.5 °F 24.8 °F 65% 29.92 in 10.0 mi SSE 11.5 mph 20.7 mph N/A   Clear
9:15 PM 35.6 °F 28.0 °F 24.8 °F 65% 29.92 in 10.0 mi SSE 10.4 mph 18.4 mph N/A   Clear
9:35 PM 35.6 °F 27.5 °F 24.8 °F 65% 29.93 in 10.0 mi SSE 11.5 mph 17.3 mph N/A   Clear
9:55 PM 33.8 °F 24.8 °F 24.8 °F 70% 29.93 in 10.0 mi South 12.7 mph - N/A   Clear
10:15 PM 35.6 °F 26.6 °F 24.8 °F 65% 29.94 in 10.0 mi South 13.8 mph 19.6 mph N/A   Clear
10:35 PM 35.6 °F 27.5 °F 24.8 °F 65% 29.94 in 10.0 mi South 11.5 mph 18.4 mph N/A   Clear
10:55 PM 35.6 °F 26.6 °F 24.8 °F 65% 29.93 in 10.0 mi SSE 13.8 mph 18.4 mph N/A   Mostly Cloudy
11:15 PM 33.8 °F 25.3 °F 24.8 °F 70% 29.93 in 10.0 mi SSE 11.5 mph 20.7 mph N/A   Overcast
11:35 PM 33.8 °F 24.3 °F 24.8 °F 70% 29.93 in 10.0 mi SSE 13.8 mph - N/A   Overcast
11:55 PM 33.8 °F 25.3 °F 24.8 °F 70% 29.93 in 10.0 mi SSE 11.5 mph - N/A   Overcast